createdAt,value
2018-09-11T00:01:04.913Z,101188.75
2018-09-11T00:03:38.789Z,101187.97
2018-09-11T00:06:12.096Z,101193.55
2018-09-11T00:08:45.434Z,101184.88
2018-09-11T00:11:18.766Z,101174.91
2018-09-11T00:13:52.161Z,101173.70
2018-09-11T00:16:26.547Z,101167.61
2018-09-11T00:18:59.879Z,101171.48
2018-09-11T00:21:33.353Z,101158.56
2018-09-11T00:24:06.670Z,101154.63
2018-09-11T00:26:40.435Z,101149.88
2018-09-11T00:29:13.734Z,101148.30
2018-09-11T00:31:48.124Z,101152.67
2018-09-11T00:34:21.425Z,101140.66
2018-09-11T00:36:54.705Z,101136.70
2018-09-11T00:39:28.274Z,101140.66
2018-09-11T00:42:01.573Z,101135.03
2018-09-11T00:44:34.918Z,101124.23
2018-09-11T00:47:08.765Z,101116.93
2018-09-11T00:49:42.065Z,101119.98
2018-09-11T00:52:15.333Z,101115.64
2018-09-11T00:54:49.727Z,101105.75
2018-09-11T00:57:23.015Z,101104.51
2018-09-11T00:59:56.353Z,101106.67
2018-09-11T01:02:30.061Z,101107.80
2018-09-11T01:05:03.377Z,101111.67
2018-09-11T01:07:36.663Z,101114.27
2018-09-11T01:10:10.756Z,101113.05
2018-09-11T01:12:44.052Z,101117.31
2018-09-11T01:15:17.735Z,101117.77
2018-09-11T01:17:51.286Z,101108.72
2018-09-11T01:20:24.706Z,101098.37
2018-09-11T01:22:57.997Z,101103.92
2018-09-11T01:25:31.581Z,101106.00
2018-09-11T01:28:04.870Z,101092.69
2018-09-11T01:30:38.185Z,101109.09
2018-09-11T01:33:12.226Z,101110.92
2018-09-11T01:35:45.537Z,101114.55
2018-09-11T01:38:18.861Z,101115.39
2018-09-11T01:40:52.174Z,101123.02
2018-09-11T01:43:26.474Z,101120.73
2018-09-11T01:45:59.800Z,101121.84
2018-09-11T01:48:33.081Z,101127.34
2018-09-11T01:51:06.476Z,101118.59
2018-09-11T01:53:39.800Z,101118.83
2018-09-11T01:56:13.110Z,101122.12
2018-09-11T01:58:46.409Z,101122.91
2018-09-11T02:01:20.159Z,101115.39
2018-09-11T02:03:53.446Z,101113.17
2018-09-11T02:06:26.766Z,101105.82
2018-09-11T02:09:00.073Z,101098.44
2018-09-11T02:11:33.393Z,101103.15
2018-09-11T02:14:06.705Z,101103.98
2018-09-11T02:16:40.041Z,101102.23
2018-09-11T02:19:13.322Z,101099.14
2018-09-11T02:21:46.661Z,101106.44
2018-09-11T02:24:20.793Z,101104.31
2018-09-11T02:26:54.099Z,101109.40
2018-09-11T02:29:27.389Z,101109.00
2018-09-11T02:32:00.738Z,101115.03
2018-09-11T02:34:34.034Z,101106.81
2018-09-11T02:37:08.031Z,101108.55
2018-09-11T02:39:42.234Z,101105.98
2018-09-11T02:42:15.549Z,101097.38
2018-09-11T02:44:48.929Z,101105.88
2018-09-11T02:47:22.885Z,101106.34
2018-09-11T02:49:56.194Z,101106.79
2018-09-11T02:52:29.505Z,101101.16
2018-09-11T02:55:02.791Z,101099.05
2018-09-11T02:57:37.069Z,101100.43
2018-09-11T03:00:10.363Z,101102.09
2018-09-11T03:02:43.675Z,101101.27
2018-09-11T03:05:16.973Z,101097.38
2018-09-11T03:07:50.278Z,101095.17
2018-09-11T03:10:23.648Z,101101.53
2018-09-11T03:12:57.614Z,101103.09
2018-09-11T03:15:31.070Z,101114.20
2018-09-11T03:18:04.410Z,101110.31
2018-09-11T03:20:37.996Z,101112.20
2018-09-11T03:23:11.350Z,101111.88
2018-09-11T03:25:44.678Z,101118.22
2018-09-11T03:28:17.997Z,101121.59
2018-09-11T03:30:51.453Z,101115.88
2018-09-11T03:33:24.785Z,101113.45
2018-09-11T03:35:59.132Z,101112.39
2018-09-11T03:38:32.488Z,101107.45
2018-09-11T03:41:06.510Z,101100.61
2018-09-11T03:43:39.854Z,101097.85
2018-09-11T03:46:14.241Z,101093.69
2018-09-11T03:48:47.545Z,101092.44
2018-09-11T03:51:22.245Z,101083.61
2018-09-11T03:53:55.560Z,101080.42
2018-09-11T03:56:28.885Z,101073.81
2018-09-11T03:59:02.188Z,101071.69
2018-09-11T04:01:35.531Z,101078.16
2018-09-11T04:04:08.911Z,101080.66
2018-09-11T04:06:42.249Z,101074.27
2018-09-11T04:09:15.566Z,101076.08
2018-09-11T04:11:48.889Z,101072.84
2018-09-11T04:14:22.192Z,101072.94
2018-09-11T04:16:55.737Z,101069.46
2018-09-11T04:19:29.017Z,101068.59
2018-09-11T04:22:02.333Z,101074.55
2018-09-11T04:24:35.785Z,101066.33
2018-09-11T04:27:09.139Z,101060.78
2018-09-11T04:29:42.424Z,101056.25
2018-09-11T04:32:15.736Z,101052.11
2018-09-11T04:34:49.010Z,101052.11
2018-09-11T04:37:29.094Z,101052.48
2018-09-11T04:40:02.476Z,101051.64
2018-09-11T04:42:35.806Z,101057.55
2018-09-11T04:45:09.145Z,101052.47
2018-09-11T04:47:42.450Z,101048.72
2018-09-11T04:50:15.753Z,101046.22
2018-09-11T04:52:49.085Z,101052.92
2018-09-11T04:55:22.484Z,101046.83
2018-09-11T04:57:55.793Z,101048.50
2018-09-11T05:00:29.081Z,101048.13
2018-09-11T05:03:03.363Z,101045.67
2018-09-11T05:05:36.933Z,101047.75
2018-09-11T05:08:10.267Z,101051.63
2018-09-11T05:10:43.581Z,101050.80
2018-09-11T05:13:16.926Z,101048.50
2018-09-11T05:15:50.577Z,101040.73
2018-09-11T05:18:23.943Z,101041.89
2018-09-11T05:20:58.216Z,101046.77
2018-09-11T05:23:31.534Z,101049.20
2018-09-11T05:26:04.860Z,101050.89
2018-09-11T05:28:38.481Z,101049.66
2018-09-11T05:31:11.820Z,101050.33
2018-09-11T05:33:45.161Z,101047.89
2018-09-11T05:36:19.004Z,101057.41
2018-09-11T05:38:52.330Z,101052.31
2018-09-11T05:41:25.642Z,101050.94
2018-09-11T05:43:58.968Z,101050.56
2018-09-11T05:46:32.299Z,101047.02
2018-09-11T05:49:05.985Z,101047.47
2018-09-11T05:51:45.940Z,101039.98
2018-09-11T05:54:19.355Z,101044.42
2018-09-11T05:56:52.673Z,101035.83
2018-09-11T05:59:26.655Z,101033.37
2018-09-11T06:01:59.970Z,101025.13
2018-09-11T06:04:33.316Z,101020.81
2018-09-11T06:07:06.637Z,101015.16
2018-09-11T06:09:40.341Z,101013.88
2018-09-11T06:12:13.644Z,101010.05
2018-09-11T06:14:46.977Z,101011.74
2018-09-11T06:17:20.314Z,100998.88
2018-09-11T06:19:53.690Z,101001.62
2018-09-11T06:22:27.032Z,101000.84
2018-09-11T06:25:00.339Z,101002.98
2018-09-11T06:27:33.631Z,101009.09
2018-09-11T06:30:07.289Z,101014.34
2018-09-11T06:32:40.589Z,101023.78
2018-09-11T06:35:13.929Z,101021.56
2018-09-11T06:37:47.234Z,101022.79
2018-09-11T06:40:20.937Z,101025.30
2018-09-11T06:42:54.281Z,101030.67
2018-09-11T06:45:27.589Z,101032.88
2018-09-11T06:48:01.133Z,101036.91
2018-09-11T06:50:34.437Z,101039.88
2018-09-11T06:53:07.818Z,101042.84
2018-09-11T06:55:41.158Z,101042.84
2018-09-11T06:58:14.483Z,101053.67
2018-09-11T07:00:47.850Z,101042.92
2018-09-11T07:03:21.155Z,101047.41
2018-09-11T07:05:54.485Z,101055.64
2018-09-11T07:08:27.825Z,101036.91
2018-09-11T07:11:01.201Z,101034.31
2018-09-11T07:13:34.535Z,101024.27
2018-09-11T07:16:07.949Z,101037.15
2018-09-11T07:18:41.265Z,101030.63
2018-09-11T07:21:14.605Z,101026.98
2018-09-11T07:23:47.938Z,101024.05
2018-09-11T07:26:21.297Z,101029.89
2018-09-11T07:28:55.134Z,101019.05
2018-09-11T07:31:28.471Z,101027.10
2018-09-11T07:34:01.789Z,101015.42
2018-09-11T07:36:35.137Z,101023.59
2018-09-11T07:39:08.966Z,101022.20
2018-09-11T07:41:46.185Z,101020.11
2018-09-11T07:44:19.488Z,101021.41
2018-09-11T07:46:52.809Z,101010.02
2018-09-11T07:49:26.120Z,100998.20
2018-09-11T07:51:59.446Z,100996.66
2018-09-11T07:54:32.838Z,100994.19
2018-09-11T07:57:06.909Z,100984.02
2018-09-11T07:59:40.206Z,101003.96
2018-09-11T08:02:13.534Z,101000.26
2018-09-11T08:04:46.858Z,100993.19
2018-09-11T08:07:20.173Z,100998.05
2018-09-11T08:09:53.525Z,100996.79
2018-09-11T08:12:26.849Z,100994.62
2018-09-11T08:15:00.177Z,101013.55
2018-09-11T08:17:33.489Z,101018.75
2018-09-11T08:20:06.838Z,101019.69
2018-09-11T08:22:40.195Z,101006.69
2018-09-11T08:25:13.539Z,101000.55
2018-09-11T08:27:46.845Z,100989.43
2018-09-11T08:30:20.204Z,100998.42
2018-09-11T08:32:53.509Z,101002.42
2018-09-11T08:35:26.912Z,101018.05
2018-09-11T08:38:00.548Z,101016.37
2018-09-11T08:40:34.267Z,101016.52
2018-09-11T08:43:07.613Z,101010.94
2018-09-11T08:45:40.929Z,101014.27
2018-09-11T08:48:14.262Z,101009.50
2018-09-11T08:50:47.590Z,101015.91
2018-09-11T08:53:20.922Z,101013.49
2018-09-11T08:55:54.301Z,101007.16
2018-09-11T08:58:27.698Z,101001.19
2018-09-11T09:01:01.173Z,101019.80
2018-09-11T09:03:34.496Z,101008.77
2018-09-11T09:06:07.985Z,101011.88
2018-09-11T09:08:41.286Z,101011.47
2018-09-11T09:11:14.616Z,101023.28
2018-09-11T09:13:47.892Z,101029.05
2018-09-11T09:16:21.209Z,101020.86
2018-09-11T09:18:54.518Z,101031.51
2018-09-11T09:21:27.813Z,101026.14
2018-09-11T09:24:01.160Z,101018.62
2018-09-11T09:26:34.470Z,101012.95
2018-09-11T09:29:08.081Z,101013.76
2018-09-11T09:31:41.389Z,101014.74
2018-09-11T09:34:14.680Z,101009.38
2018-09-11T09:36:48.072Z,101007.14
2018-09-11T09:39:21.409Z,101001.36
2018-09-11T09:41:54.722Z,101008.42
2018-09-11T09:44:28.000Z,101001.42
2018-09-11T09:47:01.293Z,100992.31
2018-09-11T09:49:34.582Z,100988.79
2018-09-11T09:52:08.146Z,100990.03
2018-09-11T09:54:41.443Z,100999.39
2018-09-11T09:57:14.769Z,100992.16
2018-09-11T09:59:48.057Z,100991.55
2018-09-11T10:02:22.290Z,100991.89
2018-09-11T10:04:55.676Z,100978.91
2018-09-11T10:07:28.965Z,100976.94
2018-09-11T10:10:02.285Z,100972.63
2018-09-11T10:12:35.610Z,100973.00
2018-09-11T10:15:08.965Z,100980.37
2018-09-11T10:17:42.342Z,100981.38
2018-09-11T10:20:15.626Z,100969.97
2018-09-11T10:22:48.949Z,100969.02
2018-09-11T10:25:22.282Z,100961.91
2018-09-11T10:27:55.616Z,100955.13
2018-09-11T10:30:28.955Z,100950.64
2018-09-11T10:33:02.341Z,100960.16
2018-09-11T10:35:35.672Z,100967.30
2018-09-11T10:38:09.024Z,100955.58
2018-09-11T10:40:42.341Z,100955.13
2018-09-11T10:43:15.684Z,100953.28
2018-09-11T10:45:49.009Z,100956.47
2018-09-11T10:48:22.334Z,100946.28
2018-09-11T10:50:55.667Z,100958.03
2018-09-11T10:53:29.049Z,100954.62
2018-09-11T10:56:02.365Z,100970.33
2018-09-11T10:58:35.702Z,100969.68
2018-09-11T11:01:09.039Z,100964.80
2018-09-11T11:03:43.100Z,100972.48
2018-09-11T11:06:16.397Z,100971.89
2018-09-11T11:08:49.791Z,100968.41
2018-09-11T11:11:23.849Z,100955.92
2018-09-11T11:13:59.112Z,100970.33
2018-09-11T11:16:32.430Z,100972.44
2018-09-11T11:19:05.966Z,100967.11
2018-09-11T11:21:39.325Z,100966.41
2018-09-11T11:24:13.025Z,100964.49
2018-09-11T11:26:46.361Z,100964.86
2018-09-11T11:29:19.693Z,100946.45
2018-09-11T11:31:53.019Z,100959.14
2018-09-11T11:34:26.867Z,100960.72
2018-09-11T11:37:01.209Z,100958.01
2018-09-11T11:39:34.350Z,100951.69
2018-09-11T11:42:07.766Z,100952.87
2018-09-11T11:44:41.090Z,100949.37
2018-09-11T11:47:14.385Z,100944.31
2018-09-11T11:49:48.035Z,100937.64
2018-09-11T11:52:21.482Z,100933.70
2018-09-11T11:54:54.861Z,100939.54
2018-09-11T11:57:28.163Z,100934.52
2018-09-11T12:00:01.497Z,100935.97
2018-09-11T12:02:34.797Z,100941.89
2018-09-11T12:05:08.179Z,100937.38
2018-09-11T12:07:41.531Z,100943.58
2018-09-11T12:10:14.827Z,100948.81
2018-09-11T12:12:49.681Z,100937.41
2018-09-11T12:15:22.978Z,100933.38
2018-09-11T12:17:56.266Z,100932.67
2018-09-11T12:20:29.680Z,100929.95
2018-09-11T12:23:02.979Z,100923.01
2018-09-11T12:25:36.342Z,100915.47
2018-09-11T12:28:09.661Z,100906.14
2018-09-11T12:30:42.968Z,100912.37
2018-09-11T12:33:16.701Z,100904.19
2018-09-11T12:35:50.071Z,100907.20
2018-09-11T12:38:23.361Z,100903.91
2018-09-11T12:40:56.657Z,100903.16
2018-09-11T12:43:29.942Z,100895.98
2018-09-11T12:46:03.520Z,100908.23
2018-09-11T12:48:36.687Z,100905.27
2018-09-11T12:51:10.129Z,100904.96
2018-09-11T12:53:43.428Z,100890.42
2018-09-11T12:56:16.777Z,100906.16
2018-09-11T12:58:50.085Z,100895.47
2018-09-11T13:01:23.377Z,100899.03
2018-09-11T13:03:57.481Z,100899.70
2018-09-11T13:06:30.905Z,100898.57
2018-09-11T13:09:05.919Z,100888.17
2018-09-11T13:11:39.246Z,100893.79
2018-09-11T13:14:12.571Z,100905.56
2018-09-11T13:16:45.881Z,100904.42
2018-09-11T13:19:19.233Z,100899.58
2018-09-11T13:21:52.539Z,100897.84
2018-09-11T13:24:25.851Z,100888.27
2018-09-11T13:26:59.142Z,100877.63
2018-09-11T13:29:32.439Z,100886.44
2018-09-11T13:32:05.716Z,100884.89
2018-09-11T13:34:39.061Z,100875.88
2018-09-11T13:37:12.345Z,100873.88
2018-09-11T13:39:45.702Z,100878.75
2018-09-11T13:42:18.994Z,100864.83
2018-09-11T13:44:52.304Z,100867.62
2018-09-11T13:47:25.766Z,100864.75
2018-09-11T13:49:58.948Z,100865.52
2018-09-11T13:52:32.236Z,100853.08
2018-09-11T13:55:05.624Z,100871.18
2018-09-11T13:57:38.928Z,100867.87
2018-09-11T14:00:12.234Z,100871.30
2018-09-11T14:02:45.615Z,100868.23
2018-09-11T14:05:18.912Z,100876.47
2018-09-11T14:07:52.218Z,100880.86
2018-09-11T14:10:25.537Z,100878.61
2018-09-11T14:12:58.838Z,100879.26
2018-09-11T14:15:32.152Z,100874.70
2018-09-11T14:18:05.454Z,100887.48
2018-09-11T14:20:38.885Z,100881.27
2018-09-11T14:23:12.166Z,100880.11
2018-09-11T14:25:45.469Z,100881.50
2018-09-11T14:28:18.770Z,100872.50
2018-09-11T14:30:52.224Z,100875.47
2018-09-11T14:33:25.549Z,100870.03
2018-09-11T14:35:58.851Z,100875.75
2018-09-11T14:38:32.143Z,100890.73
2018-09-11T14:41:05.469Z,100886.33
2018-09-11T14:43:38.801Z,100881.80
2018-09-11T14:46:12.100Z,100892.79
2018-09-11T14:48:45.394Z,100896.27
2018-09-11T14:51:18.707Z,100886.64
2018-09-11T14:53:52.003Z,100893.77
2018-09-11T14:56:25.314Z,100887.89
2018-09-11T14:58:58.654Z,100895.39
2018-09-11T15:01:31.950Z,100889.09
2018-09-11T15:04:05.332Z,100876.98
2018-09-11T15:06:38.721Z,100878.77
2018-09-11T15:09:12.160Z,100863.53
2018-09-11T15:11:45.501Z,100878.13
2018-09-11T15:14:18.789Z,100881.23
2018-09-11T15:16:52.117Z,100880.41
2018-09-11T15:19:25.423Z,100877.41
2018-09-11T15:21:58.809Z,100886.35
2018-09-11T15:24:32.109Z,100887.95
2018-09-11T15:27:05.434Z,100880.80
2018-09-11T15:29:38.819Z,100885.06
2018-09-11T15:32:12.133Z,100884.01
2018-09-11T15:34:45.441Z,100884.01
2018-09-11T15:37:18.777Z,100885.66
2018-09-11T15:39:52.185Z,100888.26
2018-09-11T15:42:25.501Z,100888.21
2018-09-11T15:44:58.891Z,100882.70
2018-09-11T15:47:32.268Z,100887.20
2018-09-11T15:50:05.604Z,100880.42
2018-09-11T15:52:38.971Z,100869.27
2018-09-11T15:55:12.273Z,100869.12
2018-09-11T15:57:45.590Z,100863.81
2018-09-11T16:00:18.903Z,100870.42
2018-09-11T16:02:52.221Z,100866.23
2018-09-11T16:05:25.561Z,100866.00
2018-09-11T16:07:58.904Z,100870.35
2018-09-11T16:10:32.267Z,100875.20
2018-09-11T16:13:05.850Z,100870.91
2018-09-11T16:15:39.196Z,100875.32
2018-09-11T16:18:12.528Z,100879.75
2018-09-11T16:20:45.889Z,100888.67
2018-09-11T16:23:19.229Z,100889.07
2018-09-11T16:25:52.554Z,100889.51
2018-09-11T16:28:25.877Z,100881.66
2018-09-11T16:30:59.173Z,100887.53
2018-09-11T16:33:32.515Z,100891.94
2018-09-11T16:36:05.822Z,100886.58
2018-09-11T16:38:39.218Z,100880.08
2018-09-11T16:41:12.507Z,100886.62
2018-09-11T16:43:45.842Z,100887.31
2018-09-11T16:46:19.152Z,100886.39
2018-09-11T16:48:52.516Z,100887.59
2018-09-11T16:51:25.825Z,100889.50
2018-09-11T16:53:59.165Z,100880.47
2018-09-11T16:56:32.468Z,100891.19
2018-09-11T16:59:05.797Z,100887.16
2018-09-11T17:01:39.777Z,100894.09
2018-09-11T17:04:13.152Z,100892.64
2018-09-11T17:06:47.063Z,100886.82
2018-09-11T17:09:20.441Z,100884.10
2018-09-11T17:11:53.920Z,100885.66
2018-09-11T17:14:27.367Z,100886.86
2018-09-11T17:17:00.671Z,100879.83
2018-09-11T17:19:33.994Z,100880.77
2018-09-11T17:22:07.338Z,100882.69
2018-09-11T17:24:40.662Z,100884.96
2018-09-11T17:27:13.979Z,100878.28
2018-09-11T17:29:47.429Z,100884.82
2018-09-11T17:32:20.981Z,100884.27
2018-09-11T17:34:54.563Z,100881.37
2018-09-11T17:37:28.661Z,100886.36
2018-09-11T17:40:01.993Z,100883.30
2018-09-11T17:42:36.095Z,100877.59
2018-09-11T17:45:09.678Z,100878.76
2018-09-11T17:47:42.974Z,100886.28
2018-09-11T17:50:17.201Z,100890.20
2018-09-11T17:52:50.505Z,100882.47
2018-09-11T17:55:23.996Z,100892.69
2018-09-11T17:57:57.250Z,100901.37
2018-09-11T18:00:30.631Z,100901.48
2018-09-11T18:03:04.539Z,100908.16
2018-09-11T18:05:37.868Z,100908.74
2018-09-11T18:08:11.259Z,100915.77
2018-09-11T18:10:45.857Z,100925.86
2018-09-11T18:13:19.194Z,100922.91
2018-09-11T18:15:52.517Z,100932.40
2018-09-11T18:18:25.846Z,100931.45
2018-09-11T18:20:59.140Z,100932.05
2018-09-11T18:23:32.489Z,100937.17
2018-09-11T18:26:05.845Z,100936.33
2018-09-11T18:28:39.230Z,100933.33
2018-09-11T18:31:12.540Z,100944.17
2018-09-11T18:33:45.859Z,100943.20
2018-09-11T18:36:19.199Z,100941.05
2018-09-11T18:38:52.545Z,100948.80
2018-09-11T18:41:25.877Z,100952.95
2018-09-11T18:43:59.214Z,100955.59
2018-09-11T18:46:32.689Z,100955.59
2018-09-11T18:49:06.171Z,100961.63
2018-09-11T18:51:39.903Z,100960.80
2018-09-11T18:54:13.226Z,100973.51
2018-09-11T18:56:47.408Z,100972.81
2018-09-11T18:59:21.532Z,100967.80
2018-09-11T19:01:54.863Z,100976.94
2018-09-11T19:04:28.201Z,100971.00
2018-09-11T19:07:01.514Z,100960.77
2018-09-11T19:09:34.830Z,100976.94
2018-09-11T19:12:08.148Z,100973.72
2018-09-11T19:14:41.457Z,100973.73
2018-09-11T19:17:14.746Z,100985.94
2018-09-11T19:19:48.381Z,100979.85
2018-09-11T19:22:21.629Z,100978.64
2018-09-11T19:24:54.982Z,100979.76
2018-09-11T19:27:28.253Z,100970.51
2018-09-11T19:30:01.546Z,100978.10
2018-09-11T19:32:34.834Z,100975.01
2018-09-11T19:35:08.152Z,100977.46
2018-09-11T19:37:41.435Z,100983.65
2018-09-11T19:40:14.826Z,100974.50
2018-09-11T19:42:48.122Z,100974.56
2018-09-11T19:45:21.434Z,100978.48
2018-09-11T19:47:54.738Z,100981.45
2018-09-11T19:50:28.120Z,100979.77
2018-09-11T19:53:01.374Z,100982.15
2018-09-11T19:55:34.705Z,100989.86
2018-09-11T19:58:08.044Z,100986.52
2018-09-11T20:00:41.350Z,100980.94
2018-09-11T20:03:14.659Z,100979.59
2018-09-11T20:05:47.976Z,100975.06
2018-09-11T20:08:21.329Z,100973.32
2018-09-11T20:10:54.669Z,100977.02
2018-09-11T20:13:27.960Z,100976.06
2018-09-11T20:16:01.290Z,100978.16
2018-09-11T20:18:34.564Z,100978.38
2018-09-11T20:21:07.940Z,100982.99
2018-09-11T20:23:41.218Z,100982.64
2018-09-11T20:26:14.535Z,100988.34
2018-09-11T20:28:47.809Z,100982.03
2018-09-11T20:31:21.189Z,100985.86
2018-09-11T20:33:54.580Z,100982.99
2018-09-11T20:36:27.892Z,100978.94
2018-09-11T20:39:01.185Z,100976.11
2018-09-11T20:41:34.513Z,100969.32
2018-09-11T20:44:08.185Z,100965.19
2018-09-11T20:46:47.954Z,100967.62
2018-09-11T20:49:21.219Z,100973.53
2018-09-11T20:51:54.546Z,100969.01
2018-09-11T20:54:27.825Z,100968.19
2018-09-11T20:57:01.128Z,100969.48
2018-09-11T20:59:34.411Z,100966.49
2018-09-11T21:02:07.709Z,100961.70
2018-09-11T21:04:40.989Z,100959.32
2018-09-11T21:07:14.301Z,100966.05
2018-09-11T21:09:47.621Z,100963.31
2018-09-11T21:12:20.936Z,100954.74
2018-09-11T21:14:54.254Z,100962.89
2018-09-11T21:17:27.590Z,100960.88
2018-09-11T21:20:00.906Z,100958.34
2018-09-11T21:22:34.218Z,100963.09
2018-09-11T21:25:07.559Z,100961.27
2018-09-11T21:27:40.873Z,100958.30
2018-09-11T21:30:14.169Z,100965.60
2018-09-11T21:32:47.501Z,100958.52
2018-09-11T21:35:20.797Z,100966.47
2018-09-11T21:37:54.102Z,100973.22
2018-09-11T21:40:27.398Z,100971.09
2018-09-11T21:43:00.724Z,100975.27
2018-09-11T21:45:34.057Z,100966.08
2018-09-11T21:48:07.458Z,100968.13
2018-09-11T21:50:40.801Z,100972.52
2018-09-11T21:53:14.109Z,100972.87
2018-09-11T21:55:47.411Z,100971.42
2018-09-11T21:58:20.735Z,100962.16
2018-09-11T22:00:59.310Z,100968.08
2018-09-11T22:03:32.644Z,100970.59
2018-09-11T22:06:06.013Z,100968.88
2018-09-11T22:08:39.875Z,100971.28
2018-09-11T22:11:13.189Z,100976.11
2018-09-11T22:13:46.764Z,100974.59
2018-09-11T22:16:20.165Z,100974.03
2018-09-11T22:18:53.490Z,100976.98
2018-09-11T22:21:26.764Z,100975.88
2018-09-11T22:24:00.083Z,100972.94
2018-09-11T22:26:33.819Z,100975.19
2018-09-11T22:29:07.122Z,100970.54
2018-09-11T22:31:40.427Z,100969.66
2018-09-11T22:34:13.745Z,100969.78
2018-09-11T22:36:47.024Z,100961.91
2018-09-11T22:39:20.331Z,100963.80
2018-09-11T22:41:53.612Z,100960.39
2018-09-11T22:44:26.921Z,100960.09
2018-09-11T22:47:00.204Z,100955.22
2018-09-11T22:49:33.522Z,100956.88
2018-09-11T22:52:06.882Z,100956.05
2018-09-11T22:54:40.849Z,100957.92
2018-09-11T22:57:14.158Z,100962.29
2018-09-11T22:59:47.475Z,100959.56
2018-09-11T23:02:20.761Z,100951.47
2018-09-11T23:04:54.073Z,100950.97
2018-09-11T23:07:27.679Z,100947.41
2018-09-11T23:10:01.006Z,100945.28
2018-09-11T23:12:34.293Z,100948.58
2018-09-11T23:15:07.640Z,100944.09
2018-09-11T23:17:40.987Z,100945.61
2018-09-11T23:20:14.296Z,100943.78
2018-09-11T23:22:47.610Z,100945.15
2018-09-11T23:25:20.893Z,100945.73
2018-09-11T23:27:54.181Z,100933.80
2018-09-11T23:30:27.457Z,100938.75
2018-09-11T23:33:00.753Z,100933.88
2018-09-11T23:35:34.029Z,100935.19
2018-09-11T23:38:07.330Z,100938.39
2018-09-11T23:40:40.638Z,100938.75
2018-09-11T23:43:13.946Z,100937.53
2018-09-11T23:47:16.368Z,100941.09
2018-09-11T23:49:49.661Z,100939.34
2018-09-11T23:52:22.941Z,100938.01
2018-09-11T23:54:56.239Z,100938.22
2018-09-11T23:57:29.527Z,100934.78
